sensor_id;sensor_type;location;lat;lon;timestamp;P1;durP1;ratioP1;P2;durP2;ratioP2
16320;SDS011;8269;50.990;4.494;2022-07-05T00:01:00;6.85;;;3.13;;
16320;SDS011;8269;50.990;4.494;2022-07-05T00:03:26;7.78;;;3.38;;
16320;SDS011;8269;50.990;4.494;2022-07-05T00:05:53;8.07;;;3.47;;
16320;SDS011;8269;50.990;4.494;2022-07-05T00:08:19;9.02;;;3.78;;
16320;SDS011;8269;50.990;4.494;2022-07-05T00:10:45;5.93;;;3.50;;
16320;SDS011;8269;50.990;4.494;2022-07-05T00:13:11;7.35;;;3.63;;
16320;SDS011;8269;50.990;4.494;2022-07-05T00:15:37;5.53;;;3.30;;
16320;SDS011;8269;50.990;4.494;2022-07-05T00:18:03;6.30;;;3.72;;
16320;SDS011;8269;50.990;4.494;2022-07-05T00:20:29;6.75;;;3.47;;
16320;SDS011;8269;50.990;4.494;2022-07-05T00:22:55;8.02;;;3.47;;
16320;SDS011;8269;50.990;4.494;2022-07-05T00:25:20;7.57;;;3.72;;
16320;SDS011;8269;50.990;4.494;2022-07-05T00:27:46;6.72;;;3.42;;
16320;SDS011;8269;50.990;4.494;2022-07-05T00:30:12;6.25;;;3.80;;
16320;SDS011;8269;50.990;4.494;2022-07-05T00:32:38;6.60;;;3.50;;
16320;SDS011;8269;50.990;4.494;2022-07-05T00:35:04;9.35;;;3.80;;
16320;SDS011;8269;50.990;4.494;2022-07-05T00:37:31;8.88;;;3.75;;
16320;SDS011;8269;50.990;4.494;2022-07-05T00:39:56;7.43;;;3.78;;
16320;SDS011;8269;50.990;4.494;2022-07-05T00:42:22;6.78;;;3.38;;
16320;SDS011;8269;50.990;4.494;2022-07-05T00:44:48;5.30;;;3.30;;
16320;SDS011;8269;50.990;4.494;2022-07-05T00:47:13;6.80;;;3.40;;
16320;SDS011;8269;50.990;4.494;2022-07-05T00:49:39;9.15;;;3.85;;
16320;SDS011;8269;50.990;4.494;2022-07-05T00:52:06;6.13;;;3.47;;
16320;SDS011;8269;50.990;4.494;2022-07-05T00:54:33;5.00;;;3.30;;
16320;SDS011;8269;50.990;4.494;2022-07-05T00:57:00;6.97;;;4.05;;
16320;SDS011;8269;50.990;4.494;2022-07-05T00:59:26;7.32;;;4.32;;
16320;SDS011;8269;50.990;4.494;2022-07-05T01:01:52;5.70;;;3.67;;
16320;SDS011;8269;50.990;4.494;2022-07-05T01:04:18;12.90;;;4.30;;
16320;SDS011;8269;50.990;4.494;2022-07-05T01:06:45;6.25;;;3.97;;
16320;SDS011;8269;50.990;4.494;2022-07-05T01:09:13;5.93;;;4.05;;
16320;SDS011;8269;50.990;4.494;2022-07-05T01:11:48;6.80;;;4.38;;
16320;SDS011;8269;50.990;4.494;2022-07-05T01:14:18;9.27;;;5.18;;
16320;SDS011;8269;50.990;4.494;2022-07-05T01:16:45;6.68;;;4.85;;
16320;SDS011;8269;50.990;4.494;2022-07-05T01:19:12;10.85;;;5.45;;
16320;SDS011;8269;50.990;4.494;2022-07-05T01:21:39;6.82;;;5.07;;
16320;SDS011;8269;50.990;4.494;2022-07-05T01:24:07;7.15;;;4.78;;
16320;SDS011;8269;50.990;4.494;2022-07-05T01:26:34;9.85;;;4.85;;
16320;SDS011;8269;50.990;4.494;2022-07-05T01:29:01;6.80;;;5.00;;
16320;SDS011;8269;50.990;4.494;2022-07-05T01:31:26;7.53;;;4.95;;
16320;SDS011;8269;50.990;4.494;2022-07-05T01:33:52;6.35;;;4.88;;
16320;SDS011;8269;50.990;4.494;2022-07-05T01:36:18;6.68;;;4.57;;
16320;SDS011;8269;50.990;4.494;2022-07-05T01:38:44;7.10;;;5.18;;
16320;SDS011;8269;50.990;4.494;2022-07-05T01:41:11;7.63;;;5.07;;
16320;SDS011;8269;50.990;4.494;2022-07-05T01:43:36;8.82;;;4.97;;
16320;SDS011;8269;50.990;4.494;2022-07-05T01:46:04;7.68;;;5.13;;
16320;SDS011;8269;50.990;4.494;2022-07-05T01:48:32;9.45;;;5.28;;
16320;SDS011;8269;50.990;4.494;2022-07-05T01:51:07;10.32;;;5.20;;
16320;SDS011;8269;50.990;4.494;2022-07-05T01:53:38;6.70;;;5.35;;
16320;SDS011;8269;50.990;4.494;2022-07-05T01:56:04;7.28;;;4.47;;
16320;SDS011;8269;50.990;4.494;2022-07-05T01:58:30;7.47;;;4.75;;
16320;SDS011;8269;50.990;4.494;2022-07-05T02:00:57;7.85;;;4.72;;
16320;SDS011;8269;50.990;4.494;2022-07-05T02:03:27;9.60;;;5.00;;
16320;SDS011;8269;50.990;4.494;2022-07-05T02:05:53;7.60;;;4.85;;
16320;SDS011;8269;50.990;4.494;2022-07-05T02:08:19;6.25;;;4.78;;
16320;SDS011;8269;50.990;4.494;2022-07-05T02:10:46;7.90;;;5.05;;
16320;SDS011;8269;50.990;4.494;2022-07-05T02:13:12;7.80;;;5.10;;
16320;SDS011;8269;50.990;4.494;2022-07-05T02:15:38;8.32;;;6.35;;
16320;SDS011;8269;50.990;4.494;2022-07-05T02:18:06;9.50;;;6.30;;
16320;SDS011;8269;50.990;4.494;2022-07-05T02:20:33;9.50;;;6.60;;
16320;SDS011;8269;50.990;4.494;2022-07-05T02:22:59;9.48;;;6.38;;
16320;SDS011;8269;50.990;4.494;2022-07-05T02:25:25;7.80;;;5.95;;
16320;SDS011;8269;50.990;4.494;2022-07-05T02:27:52;8.15;;;6.18;;
16320;SDS011;8269;50.990;4.494;2022-07-05T02:30:18;7.55;;;6.13;;
16320;SDS011;8269;50.990;4.494;2022-07-05T02:32:44;8.60;;;5.90;;
16320;SDS011;8269;50.990;4.494;2022-07-05T02:35:10;11.95;;;5.82;;
16320;SDS011;8269;50.990;4.494;2022-07-05T02:37:37;10.30;;;6.07;;
16320;SDS011;8269;50.990;4.494;2022-07-05T02:40:04;9.48;;;6.63;;
16320;SDS011;8269;50.990;4.494;2022-07-05T02:42:32;10.07;;;6.50;;
16320;SDS011;8269;50.990;4.494;2022-07-05T02:44:58;11.75;;;6.22;;
16320;SDS011;8269;50.990;4.494;2022-07-05T02:47:23;7.50;;;6.15;;
16320;SDS011;8269;50.990;4.494;2022-07-05T02:49:49;8.13;;;6.43;;
16320;SDS011;8269;50.990;4.494;2022-07-05T02:52:14;12.02;;;6.43;;
16320;SDS011;8269;50.990;4.494;2022-07-05T02:54:40;12.03;;;6.20;;
16320;SDS011;8269;50.990;4.494;2022-07-05T02:57:06;7.80;;;6.13;;
16320;SDS011;8269;50.990;4.494;2022-07-05T02:59:31;8.10;;;6.00;;
16320;SDS011;8269;50.990;4.494;2022-07-05T03:01:58;11.98;;;5.97;;
16320;SDS011;8269;50.990;4.494;2022-07-05T03:04:24;9.45;;;5.50;;
16320;SDS011;8269;50.990;4.494;2022-07-05T03:06:49;7.93;;;5.70;;
16320;SDS011;8269;50.990;4.494;2022-07-05T03:09:15;7.68;;;5.00;;
16320;SDS011;8269;50.990;4.494;2022-07-05T03:11:40;8.07;;;4.90;;
16320;SDS011;8269;50.990;4.494;2022-07-05T03:14:06;9.68;;;5.10;;
16320;SDS011;8269;50.990;4.494;2022-07-05T03:16:32;9.17;;;5.30;;
16320;SDS011;8269;50.990;4.494;2022-07-05T03:18:58;7.90;;;5.32;;
16320;SDS011;8269;50.990;4.494;2022-07-05T03:21:24;6.75;;;5.15;;
16320;SDS011;8269;50.990;4.494;2022-07-05T03:23:49;8.38;;;5.50;;
16320;SDS011;8269;50.990;4.494;2022-07-05T03:26:15;11.43;;;6.25;;
16320;SDS011;8269;50.990;4.494;2022-07-05T03:28:41;12.02;;;5.90;;
16320;SDS011;8269;50.990;4.494;2022-07-05T03:31:06;7.80;;;5.35;;
16320;SDS011;8269;50.990;4.494;2022-07-05T03:33:32;8.67;;;5.87;;
16320;SDS011;8269;50.990;4.494;2022-07-05T03:35:58;11.20;;;5.50;;
16320;SDS011;8269;50.990;4.494;2022-07-05T03:38:23;13.95;;;6.18;;
16320;SDS011;8269;50.990;4.494;2022-07-05T03:40:49;8.23;;;5.38;;
16320;SDS011;8269;50.990;4.494;2022-07-05T03:43:15;9.13;;;5.07;;
16320;SDS011;8269;50.990;4.494;2022-07-05T03:45:40;8.73;;;5.05;;
16320;SDS011;8269;50.990;4.494;2022-07-05T03:48:06;9.47;;;4.83;;
16320;SDS011;8269;50.990;4.494;2022-07-05T03:50:32;8.25;;;5.03;;
16320;SDS011;8269;50.990;4.494;2022-07-05T03:52:57;9.30;;;5.22;;
16320;SDS011;8269;50.990;4.494;2022-07-05T03:55:23;8.15;;;4.85;;
16320;SDS011;8269;50.990;4.494;2022-07-05T03:57:48;7.22;;;4.80;;
16320;SDS011;8269;50.990;4.494;2022-07-05T04:00:16;9.38;;;5.30;;
16320;SDS011;8269;50.990;4.494;2022-07-05T04:02:41;7.88;;;4.65;;
16320;SDS011;8269;50.990;4.494;2022-07-05T04:05:07;6.03;;;4.60;;
16320;SDS011;8269;50.990;4.494;2022-07-05T04:07:33;6.22;;;4.57;;
16320;SDS011;8269;50.990;4.494;2022-07-05T04:09:59;8.05;;;5.10;;
16320;SDS011;8269;50.990;4.494;2022-07-05T04:12:24;9.50;;;5.45;;
16320;SDS011;8269;50.990;4.494;2022-07-05T04:14:50;8.45;;;5.15;;
16320;SDS011;8269;50.990;4.494;2022-07-05T04:17:16;8.80;;;5.72;;
16320;SDS011;8269;50.990;4.494;2022-07-05T04:19:42;9.52;;;5.80;;
16320;SDS011;8269;50.990;4.494;2022-07-05T04:22:07;10.57;;;5.47;;
16320;SDS011;8269;50.990;4.494;2022-07-05T04:24:33;11.60;;;5.70;;
16320;SDS011;8269;50.990;4.494;2022-07-05T04:27:18;9.02;;;5.57;;
16320;SDS011;8269;50.990;4.494;2022-07-05T04:29:44;7.38;;;5.18;;
16320;SDS011;8269;50.990;4.494;2022-07-05T04:32:10;14.13;;;5.55;;
16320;SDS011;8269;50.990;4.494;2022-07-05T04:34:35;10.18;;;5.57;;
16320;SDS011;8269;50.990;4.494;2022-07-05T04:37:01;11.45;;;5.30;;
16320;SDS011;8269;50.990;4.494;2022-07-05T04:39:26;11.70;;;4.90;;
16320;SDS011;8269;50.990;4.494;2022-07-05T04:41:52;18.60;;;5.63;;
16320;SDS011;8269;50.990;4.494;2022-07-05T04:44:18;10.25;;;4.63;;
16320;SDS011;8269;50.990;4.494;2022-07-05T04:46:43;8.18;;;4.90;;
16320;SDS011;8269;50.990;4.494;2022-07-05T04:49:09;10.30;;;4.72;;
16320;SDS011;8269;50.990;4.494;2022-07-05T04:51:35;9.63;;;4.40;;
16320;SDS011;8269;50.990;4.494;2022-07-05T04:54:01;10.02;;;5.03;;
16320;SDS011;8269;50.990;4.494;2022-07-05T04:56:27;25.80;;;5.38;;
16320;SDS011;8269;50.990;4.494;2022-07-05T04:58:52;16.00;;;5.68;;
16320;SDS011;8269;50.990;4.494;2022-07-05T05:01:18;11.93;;;5.20;;
16320;SDS011;8269;50.990;4.494;2022-07-05T05:03:44;10.70;;;5.10;;
16320;SDS011;8269;50.990;4.494;2022-07-05T05:06:10;9.05;;;4.95;;
16320;SDS011;8269;50.990;4.494;2022-07-05T05:08:35;9.98;;;5.15;;
16320;SDS011;8269;50.990;4.494;2022-07-05T05:11:01;13.65;;;5.05;;
16320;SDS011;8269;50.990;4.494;2022-07-05T05:13:27;11.93;;;5.38;;
16320;SDS011;8269;50.990;4.494;2022-07-05T05:15:53;9.88;;;5.35;;
16320;SDS011;8269;50.990;4.494;2022-07-05T05:18:19;9.02;;;5.35;;
16320;SDS011;8269;50.990;4.494;2022-07-05T05:20:49;9.35;;;5.55;;
16320;SDS011;8269;50.990;4.494;2022-07-05T05:23:14;8.60;;;4.97;;
16320;SDS011;8269;50.990;4.494;2022-07-05T05:25:40;10.60;;;5.75;;
16320;SDS011;8269;50.990;4.494;2022-07-05T05:28:06;14.70;;;6.05;;
16320;SDS011;8269;50.990;4.494;2022-07-05T05:30:31;10.48;;;5.38;;
16320;SDS011;8269;50.990;4.494;2022-07-05T05:32:57;15.90;;;6.30;;
16320;SDS011;8269;50.990;4.494;2022-07-05T05:35:23;17.70;;;6.38;;
16320;SDS011;8269;50.990;4.494;2022-07-05T05:37:50;11.77;;;5.88;;
16320;SDS011;8269;50.990;4.494;2022-07-05T05:40:18;9.35;;;6.25;;
16320;SDS011;8269;50.990;4.494;2022-07-05T05:42:44;14.25;;;6.47;;
16320;SDS011;8269;50.990;4.494;2022-07-05T05:45:10;17.60;;;6.55;;
16320;SDS011;8269;50.990;4.494;2022-07-05T05:47:49;15.25;;;6.55;;
16320;SDS011;8269;50.990;4.494;2022-07-05T05:50:20;17.88;;;6.00;;
16320;SDS011;8269;50.990;4.494;2022-07-05T05:52:47;14.60;;;5.85;;
16320;SDS011;8269;50.990;4.494;2022-07-05T05:55:13;9.13;;;5.07;;
16320;SDS011;8269;50.990;4.494;2022-07-05T05:57:39;11.82;;;4.90;;
16320;SDS011;8269;50.990;4.494;2022-07-05T06:00:05;10.27;;;4.70;;
16320;SDS011;8269;50.990;4.494;2022-07-05T06:02:31;14.27;;;5.13;;
16320;SDS011;8269;50.990;4.494;2022-07-05T06:04:58;11.07;;;4.97;;
16320;SDS011;8269;50.990;4.494;2022-07-05T06:07:23;11.45;;;4.70;;
16320;SDS011;8269;50.990;4.494;2022-07-05T06:09:49;9.30;;;4.70;;
16320;SDS011;8269;50.990;4.494;2022-07-05T06:12:14;10.57;;;4.68;;
16320;SDS011;8269;50.990;4.494;2022-07-05T06:14:40;11.05;;;4.40;;
16320;SDS011;8269;50.990;4.494;2022-07-05T06:17:06;10.43;;;4.68;;
16320;SDS011;8269;50.990;4.494;2022-07-05T06:19:31;10.38;;;4.40;;
16320;SDS011;8269;50.990;4.494;2022-07-05T06:21:57;9.13;;;4.78;;
16320;SDS011;8269;50.990;4.494;2022-07-05T06:24:23;9.77;;;4.72;;
16320;SDS011;8269;50.990;4.494;2022-07-05T06:26:49;10.85;;;4.75;;
16320;SDS011;8269;50.990;4.494;2022-07-05T06:29:14;8.27;;;5.30;;
16320;SDS011;8269;50.990;4.494;2022-07-05T06:31:40;9.15;;;4.20;;
16320;SDS011;8269;50.990;4.494;2022-07-05T06:34:05;7.25;;;4.43;;
16320;SDS011;8269;50.990;4.494;2022-07-05T06:36:31;11.15;;;4.05;;
16320;SDS011;8269;50.990;4.494;2022-07-05T06:38:57;9.80;;;4.20;;
16320;SDS011;8269;50.990;4.494;2022-07-05T06:41:22;11.20;;;4.63;;
16320;SDS011;8269;50.990;4.494;2022-07-05T06:43:48;13.18;;;4.53;;
16320;SDS011;8269;50.990;4.494;2022-07-05T06:46:13;13.25;;;4.03;;
16320;SDS011;8269;50.990;4.494;2022-07-05T06:48:39;9.57;;;4.22;;
16320;SDS011;8269;50.990;4.494;2022-07-05T06:51:06;11.38;;;3.65;;
16320;SDS011;8269;50.990;4.494;2022-07-05T06:53:32;12.02;;;3.78;;
16320;SDS011;8269;50.990;4.494;2022-07-05T06:55:57;9.52;;;3.83;;
16320;SDS011;8269;50.990;4.494;2022-07-05T06:58:23;10.43;;;3.80;;
16320;SDS011;8269;50.990;4.494;2022-07-05T07:00:49;7.85;;;3.13;;
16320;SDS011;8269;50.990;4.494;2022-07-05T07:03:15;9.55;;;3.38;;
16320;SDS011;8269;50.990;4.494;2022-07-05T07:05:41;9.40;;;3.55;;
16320;SDS011;8269;50.990;4.494;2022-07-05T07:08:07;10.05;;;3.50;;
16320;SDS011;8269;50.990;4.494;2022-07-05T07:10:51;10.77;;;3.42;;
16320;SDS011;8269;50.990;4.494;2022-07-05T07:13:17;10.65;;;3.83;;
16320;SDS011;8269;50.990;4.494;2022-07-05T07:15:44;12.23;;;3.80;;
16320;SDS011;8269;50.990;4.494;2022-07-05T07:18:12;9.50;;;3.33;;
16320;SDS011;8269;50.990;4.494;2022-07-05T07:20:38;8.15;;;3.75;;
16320;SDS011;8269;50.990;4.494;2022-07-05T07:23:04;9.00;;;3.30;;
16320;SDS011;8269;50.990;4.494;2022-07-05T07:25:30;12.85;;;3.28;;
16320;SDS011;8269;50.990;4.494;2022-07-05T07:27:55;8.35;;;3.70;;
16320;SDS011;8269;50.990;4.494;2022-07-05T07:30:25;8.10;;;3.50;;
16320;SDS011;8269;50.990;4.494;2022-07-05T07:32:52;9.88;;;3.72;;
16320;SDS011;8269;50.990;4.494;2022-07-05T07:35:18;11.00;;;3.38;;
16320;SDS011;8269;50.990;4.494;2022-07-05T07:37:44;10.57;;;3.70;;
16320;SDS011;8269;50.990;4.494;2022-07-05T07:40:10;9.40;;;3.53;;
16320;SDS011;8269;50.990;4.494;2022-07-05T07:42:36;16.27;;;4.05;;
16320;SDS011;8269;50.990;4.494;2022-07-05T07:45:02;12.50;;;3.70;;
16320;SDS011;8269;50.990;4.494;2022-07-05T07:47:32;8.35;;;3.83;;
16320;SDS011;8269;50.990;4.494;2022-07-05T07:50:00;12.55;;;3.70;;
16320;SDS011;8269;50.990;4.494;2022-07-05T07:52:27;8.80;;;3.50;;
16320;SDS011;8269;50.990;4.494;2022-07-05T07:54:52;10.50;;;3.90;;
16320;SDS011;8269;50.990;4.494;2022-07-05T07:57:18;16.17;;;4.05;;
16320;SDS011;8269;50.990;4.494;2022-07-05T07:59:44;9.50;;;3.67;;
16320;SDS011;8269;50.990;4.494;2022-07-05T08:02:10;10.45;;;4.05;;
16320;SDS011;8269;50.990;4.494;2022-07-05T08:04:36;10.52;;;4.15;;
16320;SDS011;8269;50.990;4.494;2022-07-05T08:07:01;10.73;;;4.35;;
16320;SDS011;8269;50.990;4.494;2022-07-05T08:09:28;14.43;;;4.25;;
16320;SDS011;8269;50.990;4.494;2022-07-05T08:11:54;11.30;;;4.20;;
16320;SDS011;8269;50.990;4.494;2022-07-05T08:14:21;10.02;;;4.13;;
16320;SDS011;8269;50.990;4.494;2022-07-05T08:16:47;10.80;;;4.90;;
16320;SDS011;8269;50.990;4.494;2022-07-05T08:19:14;10.40;;;4.05;;
16320;SDS011;8269;50.990;4.494;2022-07-05T08:21:59;8.85;;;3.88;;
16320;SDS011;8269;50.990;4.494;2022-07-05T08:24:26;11.23;;;4.20;;
16320;SDS011;8269;50.990;4.494;2022-07-05T08:26:52;9.02;;;4.05;;
16320;SDS011;8269;50.990;4.494;2022-07-05T08:29:18;9.88;;;4.03;;
16320;SDS011;8269;50.990;4.494;2022-07-05T08:31:48;7.68;;;3.55;;
16320;SDS011;8269;50.990;4.494;2022-07-05T08:34:15;9.18;;;3.88;;
16320;SDS011;8269;50.990;4.494;2022-07-05T08:36:44;9.15;;;4.00;;
16320;SDS011;8269;50.990;4.494;2022-07-05T08:39:10;9.52;;;3.97;;
16320;SDS011;8269;50.990;4.494;2022-07-05T08:41:38;8.13;;;3.60;;
16320;SDS011;8269;50.990;4.494;2022-07-05T08:44:05;9.73;;;3.85;;
16320;SDS011;8269;50.990;4.494;2022-07-05T08:46:32;11.88;;;3.92;;
16320;SDS011;8269;50.990;4.494;2022-07-05T08:49:02;11.23;;;3.20;;
16320;SDS011;8269;50.990;4.494;2022-07-05T08:51:30;8.15;;;3.60;;
16320;SDS011;8269;50.990;4.494;2022-07-05T08:53:59;10.85;;;3.45;;
16320;SDS011;8269;50.990;4.494;2022-07-05T08:56:25;11.45;;;3.50;;
16320;SDS011;8269;50.990;4.494;2022-07-05T08:58:51;8.77;;;3.17;;
16320;SDS011;8269;50.990;4.494;2022-07-05T09:01:16;8.60;;;3.00;;
16320;SDS011;8269;50.990;4.494;2022-07-05T09:03:43;8.45;;;3.67;;
16320;SDS011;8269;50.990;4.494;2022-07-05T09:06:14;7.78;;;3.10;;
16320;SDS011;8269;50.990;4.494;2022-07-05T09:08:42;8.98;;;3.10;;
16320;SDS011;8269;50.990;4.494;2022-07-05T09:11:08;8.13;;;3.30;;
16320;SDS011;8269;50.990;4.494;2022-07-05T09:13:37;7.20;;;2.72;;
16320;SDS011;8269;50.990;4.494;2022-07-05T09:16:04;7.47;;;3.00;;
16320;SDS011;8269;50.990;4.494;2022-07-05T09:18:37;9.98;;;3.40;;
16320;SDS011;8269;50.990;4.494;2022-07-05T09:23:39;9.70;;;3.45;;
16320;SDS011;8269;50.990;4.494;2022-07-05T09:26:04;8.15;;;2.92;;
16320;SDS011;8269;50.990;4.494;2022-07-05T09:28:30;18.75;;;3.45;;
16320;SDS011;8269;50.990;4.494;2022-07-05T09:30:56;8.27;;;3.08;;
16320;SDS011;8269;50.990;4.494;2022-07-05T09:33:21;8.65;;;3.28;;
16320;SDS011;8269;50.990;4.494;2022-07-05T09:35:51;6.72;;;3.00;;
16320;SDS011;8269;50.990;4.494;2022-07-05T09:38:22;9.18;;;2.72;;
16320;SDS011;8269;50.990;4.494;2022-07-05T09:43:21;7.30;;;2.80;;
16320;SDS011;8269;50.990;4.494;2022-07-05T09:46:04;7.03;;;2.55;;
16320;SDS011;8269;50.990;4.494;2022-07-05T09:48:31;7.70;;;2.70;;
16320;SDS011;8269;50.990;4.494;2022-07-05T09:51:05;5.82;;;2.67;;
16320;SDS011;8269;50.990;4.494;2022-07-05T09:53:45;7.07;;;2.70;;
16320;SDS011;8269;50.990;4.494;2022-07-05T09:56:12;10.73;;;3.10;;
16320;SDS011;8269;50.990;4.494;2022-07-05T09:58:39;6.47;;;2.38;;
16320;SDS011;8269;50.990;4.494;2022-07-05T10:01:23;6.85;;;2.42;;
16320;SDS011;8269;50.990;4.494;2022-07-05T10:03:54;5.75;;;2.50;;
16320;SDS011;8269;50.990;4.494;2022-07-05T10:06:27;6.65;;;2.50;;
16320;SDS011;8269;50.990;4.494;2022-07-05T10:08:54;7.80;;;2.75;;
16320;SDS011;8269;50.990;4.494;2022-07-05T10:11:20;27.08;;;4.22;;
16320;SDS011;8269;50.990;4.494;2022-07-05T10:13:49;6.90;;;2.85;;
16320;SDS011;8269;50.990;4.494;2022-07-05T10:16:16;6.88;;;2.35;;
16320;SDS011;8269;50.990;4.494;2022-07-05T10:18:46;8.27;;;2.85;;
16320;SDS011;8269;50.990;4.494;2022-07-05T10:21:15;5.95;;;2.55;;
16320;SDS011;8269;50.990;4.494;2022-07-05T10:23:42;7.82;;;2.20;;
16320;SDS011;8269;50.990;4.494;2022-07-05T10:26:10;6.20;;;2.50;;
16320;SDS011;8269;50.990;4.494;2022-07-05T10:28:38;8.57;;;2.80;;
16320;SDS011;8269;50.990;4.494;2022-07-05T10:31:06;7.45;;;2.42;;
16320;SDS011;8269;50.990;4.494;2022-07-05T10:33:35;6.07;;;2.28;;
16320;SDS011;8269;50.990;4.494;2022-07-05T10:36:01;3.95;;;1.88;;
16320;SDS011;8269;50.990;4.494;2022-07-05T10:38:28;4.90;;;2.05;;
16320;SDS011;8269;50.990;4.494;2022-07-05T10:40:57;4.47;;;2.10;;
16320;SDS011;8269;50.990;4.494;2022-07-05T10:43:27;6.75;;;2.40;;
16320;SDS011;8269;50.990;4.494;2022-07-05T10:45:53;6.07;;;2.00;;
16320;SDS011;8269;50.990;4.494;2022-07-05T10:48:22;5.35;;;2.40;;
16320;SDS011;8269;50.990;4.494;2022-07-05T10:58:33;7.32;;;2.30;;
16320;SDS011;8269;50.990;4.494;2022-07-05T11:03:44;6.13;;;2.78;;
16320;SDS011;8269;50.990;4.494;2022-07-05T11:14:24;10.48;;;2.63;;
16320;SDS011;8269;50.990;4.494;2022-07-05T11:19:58;7.53;;;2.92;;
16320;SDS011;8269;50.990;4.494;2022-07-05T11:22:36;7.38;;;2.30;;
16320;SDS011;8269;50.990;4.494;2022-07-05T11:25:04;8.10;;;2.75;;
16320;SDS011;8269;50.990;4.494;2022-07-05T11:27:31;8.00;;;2.70;;
16320;SDS011;8269;50.990;4.494;2022-07-05T11:29:58;7.78;;;2.80;;
16320;SDS011;8269;50.990;4.494;2022-07-05T11:34:57;6.85;;;2.70;;
16320;SDS011;8269;50.990;4.494;2022-07-05T11:38:01;5.72;;;2.22;;
16320;SDS011;8269;50.990;4.494;2022-07-05T11:40:35;7.60;;;2.28;;
16320;SDS011;8269;50.990;4.494;2022-07-05T11:43:03;7.78;;;2.63;;
16320;SDS011;8269;50.990;4.494;2022-07-05T11:45:31;8.88;;;2.65;;
16320;SDS011;8269;50.990;4.494;2022-07-05T11:47:57;6.60;;;2.60;;
16320;SDS011;8269;50.990;4.494;2022-07-05T11:50:31;9.75;;;2.72;;
16320;SDS011;8269;50.990;4.494;2022-07-05T11:52:58;5.10;;;2.50;;
16320;SDS011;8269;50.990;4.494;2022-07-05T11:55:26;9.02;;;3.13;;
16320;SDS011;8269;50.990;4.494;2022-07-05T11:57:53;6.15;;;2.90;;
16320;SDS011;8269;50.990;4.494;2022-07-05T12:00:26;6.43;;;3.25;;
16320;SDS011;8269;50.990;4.494;2022-07-05T12:02:53;7.03;;;4.03;;
16320;SDS011;8269;50.990;4.494;2022-07-05T12:05:18;9.07;;;4.22;;
16320;SDS011;8269;50.990;4.494;2022-07-05T12:07:51;9.27;;;4.38;;
16320;SDS011;8269;50.990;4.494;2022-07-05T12:10:17;8.73;;;4.65;;
16320;SDS011;8269;50.990;4.494;2022-07-05T12:13:04;7.05;;;4.55;;
16320;SDS011;8269;50.990;4.494;2022-07-05T12:15:33;9.70;;;4.90;;
16320;SDS011;8269;50.990;4.494;2022-07-05T12:18:01;7.88;;;4.00;;
16320;SDS011;8269;50.990;4.494;2022-07-05T12:20:28;7.63;;;3.53;;
16320;SDS011;8269;50.990;4.494;2022-07-05T12:22:55;6.50;;;3.95;;
16320;SDS011;8269;50.990;4.494;2022-07-05T12:25:23;10.82;;;3.53;;
16320;SDS011;8269;50.990;4.494;2022-07-05T12:27:51;9.90;;;3.80;;
16320;SDS011;8269;50.990;4.494;2022-07-05T12:30:20;6.05;;;3.63;;
16320;SDS011;8269;50.990;4.494;2022-07-05T12:32:57;8.23;;;3.70;;
16320;SDS011;8269;50.990;4.494;2022-07-05T12:35:29;7.55;;;4.10;;
16320;SDS011;8269;50.990;4.494;2022-07-05T12:38:04;8.43;;;3.65;;
16320;SDS011;8269;50.990;4.494;2022-07-05T12:40:31;7.28;;;3.75;;
16320;SDS011;8269;50.990;4.494;2022-07-05T12:43:05;6.72;;;2.92;;
16320;SDS011;8269;50.990;4.494;2022-07-05T12:45:33;6.03;;;2.40;;
16320;SDS011;8269;50.990;4.494;2022-07-05T12:48:00;9.93;;;2.95;;
16320;SDS011;8269;50.990;4.494;2022-07-05T12:50:29;6.97;;;2.45;;
16320;SDS011;8269;50.990;4.494;2022-07-05T12:53:09;11.60;;;3.05;;
16320;SDS011;8269;50.990;4.494;2022-07-05T12:58:56;6.43;;;2.60;;
16320;SDS011;8269;50.990;4.494;2022-07-05T13:01:27;5.57;;;2.50;;
16320;SDS011;8269;50.990;4.494;2022-07-05T13:03:59;14.65;;;3.25;;
16320;SDS011;8269;50.990;4.494;2022-07-05T13:09:15;5.93;;;2.00;;
16320;SDS011;8269;50.990;4.494;2022-07-05T13:12:17;5.82;;;2.20;;
16320;SDS011;8269;50.990;4.494;2022-07-05T13:14:46;5.00;;;2.20;;
16320;SDS011;8269;50.990;4.494;2022-07-05T13:17:14;4.82;;;1.85;;
16320;SDS011;8269;50.990;4.494;2022-07-05T13:19:42;5.55;;;2.08;;
16320;SDS011;8269;50.990;4.494;2022-07-05T13:22:09;7.05;;;2.03;;
16320;SDS011;8269;50.990;4.494;2022-07-05T13:24:37;10.65;;;2.50;;
16320;SDS011;8269;50.990;4.494;2022-07-05T13:27:03;10.60;;;2.50;;
16320;SDS011;8269;50.990;4.494;2022-07-05T13:29:30;5.80;;;2.28;;
16320;SDS011;8269;50.990;4.494;2022-07-05T13:31:56;8.43;;;1.95;;
16320;SDS011;8269;50.990;4.494;2022-07-05T13:34:21;9.95;;;2.20;;
16320;SDS011;8269;50.990;4.494;2022-07-05T13:36:49;6.30;;;1.98;;
16320;SDS011;8269;50.990;4.494;2022-07-05T13:39:19;6.50;;;2.20;;
16320;SDS011;8269;50.990;4.494;2022-07-05T13:41:46;7.00;;;2.05;;
16320;SDS011;8269;50.990;4.494;2022-07-05T13:44:12;9.48;;;2.30;;
16320;SDS011;8269;50.990;4.494;2022-07-05T13:46:38;7.18;;;1.92;;
16320;SDS011;8269;50.990;4.494;2022-07-05T13:49:04;7.40;;;2.17;;
16320;SDS011;8269;50.990;4.494;2022-07-05T13:51:30;6.53;;;2.00;;
16320;SDS011;8269;50.990;4.494;2022-07-05T13:53:56;6.85;;;1.90;;
16320;SDS011;8269;50.990;4.494;2022-07-05T13:56:21;5.63;;;1.90;;
16320;SDS011;8269;50.990;4.494;2022-07-05T13:58:47;6.93;;;2.08;;
16320;SDS011;8269;50.990;4.494;2022-07-05T14:01:13;8.32;;;2.28;;
16320;SDS011;8269;50.990;4.494;2022-07-05T14:03:39;4.95;;;2.08;;
16320;SDS011;8269;50.990;4.494;2022-07-05T14:06:05;6.68;;;1.90;;
16320;SDS011;8269;50.990;4.494;2022-07-05T14:08:31;6.07;;;1.90;;
16320;SDS011;8269;50.990;4.494;2022-07-05T14:10:57;5.68;;;2.03;;
16320;SDS011;8269;50.990;4.494;2022-07-05T14:13:24;8.23;;;2.38;;
16320;SDS011;8269;50.990;4.494;2022-07-05T14:15:50;7.68;;;2.13;;
16320;SDS011;8269;50.990;4.494;2022-07-05T14:18:17;7.53;;;2.03;;
16320;SDS011;8269;50.990;4.494;2022-07-05T14:20:44;7.00;;;1.90;;
16320;SDS011;8269;50.990;4.494;2022-07-05T14:23:11;5.38;;;1.50;;
16320;SDS011;8269;50.990;4.494;2022-07-05T14:25:39;6.65;;;2.00;;
16320;SDS011;8269;50.990;4.494;2022-07-05T14:28:05;8.35;;;2.33;;
16320;SDS011;8269;50.990;4.494;2022-07-05T14:30:34;4.50;;;1.58;;
16320;SDS011;8269;50.990;4.494;2022-07-05T14:33:01;5.18;;;1.80;;
16320;SDS011;8269;50.990;4.494;2022-07-05T14:35:27;5.38;;;1.70;;
16320;SDS011;8269;50.990;4.494;2022-07-05T14:37:54;5.40;;;1.80;;
16320;SDS011;8269;50.990;4.494;2022-07-05T14:40:19;7.53;;;2.20;;
16320;SDS011;8269;50.990;4.494;2022-07-05T14:42:46;10.02;;;2.17;;
16320;SDS011;8269;50.990;4.494;2022-07-05T14:45:11;6.13;;;1.65;;
16320;SDS011;8269;50.990;4.494;2022-07-05T14:47:37;5.00;;;1.85;;
16320;SDS011;8269;50.990;4.494;2022-07-05T14:50:03;8.45;;;1.85;;
16320;SDS011;8269;50.990;4.494;2022-07-05T14:52:29;4.18;;;1.83;;
16320;SDS011;8269;50.990;4.494;2022-07-05T14:54:56;4.72;;;1.60;;
16320;SDS011;8269;50.990;4.494;2022-07-05T14:57:21;4.03;;;1.50;;
16320;SDS011;8269;50.990;4.494;2022-07-05T14:59:47;5.63;;;1.83;;
16320;SDS011;8269;50.990;4.494;2022-07-05T15:02:13;8.93;;;1.92;;
16320;SDS011;8269;50.990;4.494;2022-07-05T15:04:39;6.45;;;1.90;;
16320;SDS011;8269;50.990;4.494;2022-07-05T15:07:05;6.72;;;1.73;;
16320;SDS011;8269;50.990;4.494;2022-07-05T15:09:31;9.00;;;1.70;;
16320;SDS011;8269;50.990;4.494;2022-07-05T15:11:57;5.38;;;1.50;;
16320;SDS011;8269;50.990;4.494;2022-07-05T15:14:23;6.53;;;1.60;;
16320;SDS011;8269;50.990;4.494;2022-07-05T15:16:49;4.57;;;1.60;;
16320;SDS011;8269;50.990;4.494;2022-07-05T15:19:14;4.47;;;2.00;;
16320;SDS011;8269;50.990;4.494;2022-07-05T15:21:40;7.32;;;1.80;;
16320;SDS011;8269;50.990;4.494;2022-07-05T15:24:06;5.32;;;1.50;;
16320;SDS011;8269;50.990;4.494;2022-07-05T15:26:32;5.65;;;1.83;;
16320;SDS011;8269;50.990;4.494;2022-07-05T15:29:05;4.45;;;1.55;;
16320;SDS011;8269;50.990;4.494;2022-07-05T15:31:33;4.28;;;1.40;;
16320;SDS011;8269;50.990;4.494;2022-07-05T15:33:59;3.97;;;1.50;;